Terminal Aerodrome Forecast
Issued by NWS

Home | Current Version | Previous Version | Graphics & Text | Print | Product List | Glossary On
Versions: 1 2 3 4 5 6 7 8 9 10 11 12 13 14 15 16 17
000
FTUS43 KABR 222330
TAFMBG
TAF
KMBG 222330Z 2300/2324 17018KT P6SM FEW090 BKN200
     FM230300 15009KT P6SM OVC250
     FM231200 12010KT P6SM VCSH OVC015=

USA.gov is the U.S. government's official web portal to all federal, state and local government web resources and services.